sensor_id;sensor_type;location;lat;lon;timestamp;P1;durP1;ratioP1;P2;durP2;ratioP2
36327;SDS011;22354;50.012;8.264;2022-09-09T00:03:49;6.45;;;1.58;;
36327;SDS011;22354;50.012;8.264;2022-09-09T00:06:32;7.35;;;1.45;;
36327;SDS011;22354;50.012;8.264;2022-09-09T00:09:08;3.50;;;1.35;;
36327;SDS011;22354;50.012;8.264;2022-09-09T00:11:42;4.38;;;1.40;;
36327;SDS011;22354;50.012;8.264;2022-09-09T00:14:18;3.40;;;1.50;;
36327;SDS011;22354;50.012;8.264;2022-09-09T00:16:53;2.10;;;1.00;;
36327;SDS011;22354;50.012;8.264;2022-09-09T00:22:15;3.05;;;0.80;;
36327;SDS011;22354;50.012;8.264;2022-09-09T00:24:43;3.17;;;1.30;;
36327;SDS011;22354;50.012;8.264;2022-09-09T00:27:16;2.22;;;1.10;;
36327;SDS011;22354;50.012;8.264;2022-09-09T00:29:45;2.65;;;0.90;;
36327;SDS011;22354;50.012;8.264;2022-09-09T00:32:18;5.13;;;0.90;;
36327;SDS011;22354;50.012;8.264;2022-09-09T00:34:49;2.00;;;1.00;;
36327;SDS011;22354;50.012;8.264;2022-09-09T00:37:18;4.10;;;1.20;;
36327;SDS011;22354;50.012;8.264;2022-09-09T00:39:46;2.85;;;1.10;;
36327;SDS011;22354;50.012;8.264;2022-09-09T00:42:20;3.23;;;1.10;;
36327;SDS011;22354;50.012;8.264;2022-09-09T00:47:33;2.97;;;1.20;;
36327;SDS011;22354;50.012;8.264;2022-09-09T00:53:02;2.78;;;1.30;;
36327;SDS011;22354;50.012;8.264;2022-09-09T00:55:39;3.20;;;1.15;;
36327;SDS011;22354;50.012;8.264;2022-09-09T00:58:13;2.40;;;1.00;;
36327;SDS011;22354;50.012;8.264;2022-09-09T01:00:41;4.10;;;0.85;;
36327;SDS011;22354;50.012;8.264;2022-09-09T01:05:53;4.00;;;0.98;;
36327;SDS011;22354;50.012;8.264;2022-09-09T01:11:06;3.80;;;0.90;;
36327;SDS011;22354;50.012;8.264;2022-09-09T01:13:40;3.17;;;1.10;;
36327;SDS011;22354;50.012;8.264;2022-09-09T01:16:08;3.08;;;0.90;;
36327;SDS011;22354;50.012;8.264;2022-09-09T01:18:37;3.85;;;0.93;;
36327;SDS011;22354;50.012;8.264;2022-09-09T01:24:11;5.15;;;1.27;;
36327;SDS011;22354;50.012;8.264;2022-09-09T01:26:52;2.90;;;0.93;;
36327;SDS011;22354;50.012;8.264;2022-09-09T01:29:22;2.95;;;1.00;;
36327;SDS011;22354;50.012;8.264;2022-09-09T01:31:52;4.88;;;1.20;;
36327;SDS011;22354;50.012;8.264;2022-09-09T01:34:21;2.80;;;1.00;;
36327;SDS011;22354;50.012;8.264;2022-09-09T01:36:57;2.47;;;1.02;;
36327;SDS011;22354;50.012;8.264;2022-09-09T01:39:27;2.88;;;0.90;;
36327;SDS011;22354;50.012;8.264;2022-09-09T01:41:53;1.73;;;0.87;;
36327;SDS011;22354;50.012;8.264;2022-09-09T01:44:20;4.53;;;0.90;;
36327;SDS011;22354;50.012;8.264;2022-09-09T01:46:46;2.20;;;1.00;;
36327;SDS011;22354;50.012;8.264;2022-09-09T01:49:11;2.33;;;1.03;;
36327;SDS011;22354;50.012;8.264;2022-09-09T01:51:37;2.95;;;1.00;;
36327;SDS011;22354;50.012;8.264;2022-09-09T01:54:05;3.13;;;1.00;;
36327;SDS011;22354;50.012;8.264;2022-09-09T01:59:28;7.80;;;1.27;;
36327;SDS011;22354;50.012;8.264;2022-09-09T02:02:18;4.43;;;1.38;;
36327;SDS011;22354;50.012;8.264;2022-09-09T02:04:52;2.92;;;1.15;;
36327;SDS011;22354;50.012;8.264;2022-09-09T02:07:30;4.82;;;1.17;;
36327;SDS011;22354;50.012;8.264;2022-09-09T02:10:16;5.20;;;1.30;;
36327;SDS011;22354;50.012;8.264;2022-09-09T02:12:46;3.47;;;1.20;;
36327;SDS011;22354;50.012;8.264;2022-09-09T02:18:27;2.72;;;1.23;;
36327;SDS011;22354;50.012;8.264;2022-09-09T02:20:56;3.10;;;1.10;;
36327;SDS011;22354;50.012;8.264;2022-09-09T02:23:22;5.25;;;1.48;;
36327;SDS011;22354;50.012;8.264;2022-09-09T02:25:48;1.95;;;1.33;;
36327;SDS011;22354;50.012;8.264;2022-09-09T02:28:16;4.17;;;1.33;;
36327;SDS011;22354;50.012;8.264;2022-09-09T02:30:46;4.78;;;1.60;;
36327;SDS011;22354;50.012;8.264;2022-09-09T02:33:18;2.55;;;1.48;;
36327;SDS011;22354;50.012;8.264;2022-09-09T02:35:44;4.85;;;1.80;;
36327;SDS011;22354;50.012;8.264;2022-09-09T02:38:12;4.40;;;1.60;;
36327;SDS011;22354;50.012;8.264;2022-09-09T02:40:39;3.55;;;1.60;;
36327;SDS011;22354;50.012;8.264;2022-09-09T02:43:05;3.87;;;1.70;;
36327;SDS011;22354;50.012;8.264;2022-09-09T02:45:33;3.08;;;1.42;;
36327;SDS011;22354;50.012;8.264;2022-09-09T02:48:22;4.68;;;1.70;;
36327;SDS011;22354;50.012;8.264;2022-09-09T02:51:15;4.80;;;1.50;;
36327;SDS011;22354;50.012;8.264;2022-09-09T02:53:59;7.60;;;1.55;;
36327;SDS011;22354;50.012;8.264;2022-09-09T02:56:36;5.88;;;1.63;;
36327;SDS011;22354;50.012;8.264;2022-09-09T02:59:06;4.90;;;1.50;;
36327;SDS011;22354;50.012;8.264;2022-09-09T03:01:32;4.70;;;1.30;;
36327;SDS011;22354;50.012;8.264;2022-09-09T03:03:57;2.90;;;1.50;;
36327;SDS011;22354;50.012;8.264;2022-09-09T03:06:22;2.57;;;1.30;;
36327;SDS011;22354;50.012;8.264;2022-09-09T03:08:48;7.38;;;1.42;;
36327;SDS011;22354;50.012;8.264;2022-09-09T03:11:14;5.55;;;1.65;;
36327;SDS011;22354;50.012;8.264;2022-09-09T03:13:40;2.13;;;1.20;;
36327;SDS011;22354;50.012;8.264;2022-09-09T03:16:05;2.53;;;1.20;;
36327;SDS011;22354;50.012;8.264;2022-09-09T03:18:31;3.70;;;1.23;;
36327;SDS011;22354;50.012;8.264;2022-09-09T03:20:57;8.60;;;1.47;;
36327;SDS011;22354;50.012;8.264;2022-09-09T03:23:23;6.05;;;1.40;;
36327;SDS011;22354;50.012;8.264;2022-09-09T03:25:49;3.05;;;0.90;;
36327;SDS011;22354;50.012;8.264;2022-09-09T03:28:15;3.13;;;1.30;;
36327;SDS011;22354;50.012;8.264;2022-09-09T03:30:40;2.80;;;1.03;;
36327;SDS011;22354;50.012;8.264;2022-09-09T03:33:05;3.27;;;1.10;;
36327;SDS011;22354;50.012;8.264;2022-09-09T03:35:31;2.93;;;1.00;;
36327;SDS011;22354;50.012;8.264;2022-09-09T03:37:56;4.00;;;1.33;;
36327;SDS011;22354;50.012;8.264;2022-09-09T03:40:21;3.45;;;1.25;;
36327;SDS011;22354;50.012;8.264;2022-09-09T03:42:47;3.50;;;1.20;;
36327;SDS011;22354;50.012;8.264;2022-09-09T03:45:13;6.35;;;1.58;;
36327;SDS011;22354;50.012;8.264;2022-09-09T03:47:39;4.37;;;1.50;;
36327;SDS011;22354;50.012;8.264;2022-09-09T03:50:05;4.65;;;1.30;;
36327;SDS011;22354;50.012;8.264;2022-09-09T03:52:34;3.30;;;1.15;;
36327;SDS011;22354;50.012;8.264;2022-09-09T03:55:00;5.25;;;1.30;;
36327;SDS011;22354;50.012;8.264;2022-09-09T03:57:26;7.55;;;1.60;;
36327;SDS011;22354;50.012;8.264;2022-09-09T03:59:51;1.97;;;1.17;;
36327;SDS011;22354;50.012;8.264;2022-09-09T04:02:17;3.40;;;1.30;;
36327;SDS011;22354;50.012;8.264;2022-09-09T04:04:42;4.97;;;1.20;;
36327;SDS011;22354;50.012;8.264;2022-09-09T04:07:07;4.93;;;1.20;;
36327;SDS011;22354;50.012;8.264;2022-09-09T04:09:33;4.77;;;1.20;;
36327;SDS011;22354;50.012;8.264;2022-09-09T04:11:58;4.38;;;0.98;;
36327;SDS011;22354;50.012;8.264;2022-09-09T04:14:24;6.17;;;1.33;;
36327;SDS011;22354;50.012;8.264;2022-09-09T04:16:54;2.95;;;1.20;;
36327;SDS011;22354;50.012;8.264;2022-09-09T04:19:20;4.03;;;1.10;;
36327;SDS011;22354;50.012;8.264;2022-09-09T04:21:46;7.45;;;1.33;;
36327;SDS011;22354;50.012;8.264;2022-09-09T04:24:11;5.40;;;1.10;;
36327;SDS011;22354;50.012;8.264;2022-09-09T04:26:36;5.17;;;1.00;;
36327;SDS011;22354;50.012;8.264;2022-09-09T04:29:02;1.53;;;0.80;;
36327;SDS011;22354;50.012;8.264;2022-09-09T04:31:28;5.00;;;1.07;;
36327;SDS011;22354;50.012;8.264;2022-09-09T04:33:54;3.47;;;0.95;;
36327;SDS011;22354;50.012;8.264;2022-09-09T04:36:19;3.50;;;1.20;;
36327;SDS011;22354;50.012;8.264;2022-09-09T04:38:45;3.23;;;1.20;;
36327;SDS011;22354;50.012;8.264;2022-09-09T04:41:11;4.10;;;1.40;;
36327;SDS011;22354;50.012;8.264;2022-09-09T04:43:37;4.05;;;1.35;;
36327;SDS011;22354;50.012;8.264;2022-09-09T04:46:03;4.55;;;1.40;;
36327;SDS011;22354;50.012;8.264;2022-09-09T04:48:28;2.20;;;1.13;;
36327;SDS011;22354;50.012;8.264;2022-09-09T04:50:57;6.30;;;1.40;;
36327;SDS011;22354;50.012;8.264;2022-09-09T04:53:27;4.20;;;1.23;;
36327;SDS011;22354;50.012;8.264;2022-09-09T04:56:05;7.13;;;1.30;;
36327;SDS011;22354;50.012;8.264;2022-09-09T04:58:35;3.13;;;1.05;;
36327;SDS011;22354;50.012;8.264;2022-09-09T05:01:07;3.95;;;1.40;;
36327;SDS011;22354;50.012;8.264;2022-09-09T05:03:35;2.75;;;1.20;;
36327;SDS011;22354;50.012;8.264;2022-09-09T05:06:06;3.40;;;1.03;;
36327;SDS011;22354;50.012;8.264;2022-09-09T05:08:35;3.22;;;0.90;;
36327;SDS011;22354;50.012;8.264;2022-09-09T05:11:01;3.50;;;1.13;;
36327;SDS011;22354;50.012;8.264;2022-09-09T05:13:27;4.50;;;1.47;;
36327;SDS011;22354;50.012;8.264;2022-09-09T05:15:53;4.68;;;1.10;;
36327;SDS011;22354;50.012;8.264;2022-09-09T05:18:19;2.83;;;1.08;;
36327;SDS011;22354;50.012;8.264;2022-09-09T05:20:45;5.63;;;1.20;;
36327;SDS011;22354;50.012;8.264;2022-09-09T05:23:10;4.45;;;1.23;;
36327;SDS011;22354;50.012;8.264;2022-09-09T05:25:37;3.65;;;1.40;;
36327;SDS011;22354;50.012;8.264;2022-09-09T05:28:02;2.47;;;1.00;;
36327;SDS011;22354;50.012;8.264;2022-09-09T05:30:28;4.10;;;1.47;;
36327;SDS011;22354;50.012;8.264;2022-09-09T05:32:55;3.83;;;1.10;;
36327;SDS011;22354;50.012;8.264;2022-09-09T05:35:21;2.92;;;1.10;;
36327;SDS011;22354;50.012;8.264;2022-09-09T05:37:46;9.37;;;1.63;;
36327;SDS011;22354;50.012;8.264;2022-09-09T05:40:12;4.25;;;1.38;;
36327;SDS011;22354;50.012;8.264;2022-09-09T05:42:38;6.53;;;1.20;;
36327;SDS011;22354;50.012;8.264;2022-09-09T05:45:04;5.13;;;1.40;;
36327;SDS011;22354;50.012;8.264;2022-09-09T05:47:29;4.80;;;1.13;;
36327;SDS011;22354;50.012;8.264;2022-09-09T05:49:55;3.83;;;1.13;;
36327;SDS011;22354;50.012;8.264;2022-09-09T05:52:20;6.87;;;1.50;;
36327;SDS011;22354;50.012;8.264;2022-09-09T05:54:45;2.27;;;0.90;;
36327;SDS011;22354;50.012;8.264;2022-09-09T05:57:11;2.50;;;1.15;;
36327;SDS011;22354;50.012;8.264;2022-09-09T05:59:36;5.43;;;1.23;;
36327;SDS011;22354;50.012;8.264;2022-09-09T06:02:02;5.77;;;1.57;;
36327;SDS011;22354;50.012;8.264;2022-09-09T06:04:27;4.00;;;1.17;;
36327;SDS011;22354;50.012;8.264;2022-09-09T06:06:52;5.57;;;1.35;;
36327;SDS011;22354;50.012;8.264;2022-09-09T06:09:18;5.63;;;1.33;;
36327;SDS011;22354;50.012;8.264;2022-09-09T06:11:43;3.07;;;1.20;;
36327;SDS011;22354;50.012;8.264;2022-09-09T06:14:08;4.23;;;1.50;;
36327;SDS011;22354;50.012;8.264;2022-09-09T06:16:34;5.13;;;1.38;;
36327;SDS011;22354;50.012;8.264;2022-09-09T06:19:02;3.53;;;1.10;;
36327;SDS011;22354;50.012;8.264;2022-09-09T06:21:31;6.45;;;1.45;;
36327;SDS011;22354;50.012;8.264;2022-09-09T06:23:59;4.75;;;1.45;;
36327;SDS011;22354;50.012;8.264;2022-09-09T06:26:26;4.23;;;1.40;;
36327;SDS011;22354;50.012;8.264;2022-09-09T06:28:54;7.78;;;1.33;;
36327;SDS011;22354;50.012;8.264;2022-09-09T06:31:21;4.22;;;1.38;;
36327;SDS011;22354;50.012;8.264;2022-09-09T06:33:49;2.45;;;1.40;;
36327;SDS011;22354;50.012;8.264;2022-09-09T06:36:16;7.07;;;1.17;;
36327;SDS011;22354;50.012;8.264;2022-09-09T06:38:44;2.65;;;0.95;;
36327;SDS011;22354;50.012;8.264;2022-09-09T06:41:11;6.20;;;1.13;;
36327;SDS011;22354;50.012;8.264;2022-09-09T06:43:38;4.53;;;1.20;;
36327;SDS011;22354;50.012;8.264;2022-09-09T06:46:05;4.73;;;1.10;;
36327;SDS011;22354;50.012;8.264;2022-09-09T06:48:33;2.30;;;0.90;;
36327;SDS011;22354;50.012;8.264;2022-09-09T06:53:27;5.03;;;1.00;;
36327;SDS011;22354;50.012;8.264;2022-09-09T06:55:53;3.67;;;1.08;;
36327;SDS011;22354;50.012;8.264;2022-09-09T06:58:19;9.27;;;1.88;;
36327;SDS011;22354;50.012;8.264;2022-09-09T07:00:45;4.77;;;1.30;;
36327;SDS011;22354;50.012;8.264;2022-09-09T07:03:10;7.70;;;1.43;;
36327;SDS011;22354;50.012;8.264;2022-09-09T07:05:35;3.80;;;1.40;;
36327;SDS011;22354;50.012;8.264;2022-09-09T07:08:02;4.53;;;1.15;;
36327;SDS011;22354;50.012;8.264;2022-09-09T07:10:27;5.20;;;1.25;;
36327;SDS011;22354;50.012;8.264;2022-09-09T07:12:52;3.93;;;1.20;;
36327;SDS011;22354;50.012;8.264;2022-09-09T07:15:18;4.67;;;1.10;;
36327;SDS011;22354;50.012;8.264;2022-09-09T07:17:44;5.03;;;1.20;;
36327;SDS011;22354;50.012;8.264;2022-09-09T07:20:10;6.33;;;1.70;;
36327;SDS011;22354;50.012;8.264;2022-09-09T07:22:36;3.37;;;1.20;;
36327;SDS011;22354;50.012;8.264;2022-09-09T07:25:01;2.47;;;1.00;;
36327;SDS011;22354;50.012;8.264;2022-09-09T07:27:27;2.75;;;1.30;;
36327;SDS011;22354;50.012;8.264;2022-09-09T07:29:52;2.17;;;1.20;;
36327;SDS011;22354;50.012;8.264;2022-09-09T07:32:19;7.68;;;1.48;;
36327;SDS011;22354;50.012;8.264;2022-09-09T07:34:44;3.63;;;1.25;;
36327;SDS011;22354;50.012;8.264;2022-09-09T07:37:11;5.68;;;1.70;;
36327;SDS011;22354;50.012;8.264;2022-09-09T07:39:38;6.22;;;1.60;;
36327;SDS011;22354;50.012;8.264;2022-09-09T07:42:03;5.68;;;1.98;;
36327;SDS011;22354;50.012;8.264;2022-09-09T07:44:29;3.63;;;1.40;;
36327;SDS011;22354;50.012;8.264;2022-09-09T07:46:57;6.72;;;1.95;;
36327;SDS011;22354;50.012;8.264;2022-09-09T07:49:22;3.37;;;1.67;;
36327;SDS011;22354;50.012;8.264;2022-09-09T07:51:48;4.93;;;2.57;;
36327;SDS011;22354;50.012;8.264;2022-09-09T07:54:15;4.65;;;1.55;;
36327;SDS011;22354;50.012;8.264;2022-09-09T07:56:44;5.53;;;1.50;;
36327;SDS011;22354;50.012;8.264;2022-09-09T07:59:10;5.40;;;1.80;;
36327;SDS011;22354;50.012;8.264;2022-09-09T08:01:38;4.95;;;1.70;;
36327;SDS011;22354;50.012;8.264;2022-09-09T08:04:06;4.77;;;1.67;;
36327;SDS011;22354;50.012;8.264;2022-09-09T08:06:38;6.55;;;1.70;;
36327;SDS011;22354;50.012;8.264;2022-09-09T08:09:05;9.30;;;1.70;;
36327;SDS011;22354;50.012;8.264;2022-09-09T08:11:31;3.10;;;1.70;;
36327;SDS011;22354;50.012;8.264;2022-09-09T08:13:58;5.57;;;1.60;;
36327;SDS011;22354;50.012;8.264;2022-09-09T08:16:25;4.82;;;1.65;;
36327;SDS011;22354;50.012;8.264;2022-09-09T08:18:53;5.40;;;1.80;;
36327;SDS011;22354;50.012;8.264;2022-09-09T08:21:25;7.53;;;2.00;;
36327;SDS011;22354;50.012;8.264;2022-09-09T08:23:53;4.25;;;1.50;;
36327;SDS011;22354;50.012;8.264;2022-09-09T08:26:20;4.45;;;1.55;;
36327;SDS011;22354;50.012;8.264;2022-09-09T08:28:47;12.32;;;2.10;;
36327;SDS011;22354;50.012;8.264;2022-09-09T08:31:16;15.50;;;3.30;;
36327;SDS011;22354;50.012;8.264;2022-09-09T08:33:44;8.35;;;1.92;;
36327;SDS011;22354;50.012;8.264;2022-09-09T08:36:19;4.03;;;1.27;;
36327;SDS011;22354;50.012;8.264;2022-09-09T08:38:50;13.38;;;2.92;;
36327;SDS011;22354;50.012;8.264;2022-09-09T08:44:23;3.88;;;1.08;;
36327;SDS011;22354;50.012;8.264;2022-09-09T08:49:39;5.10;;;1.20;;
36327;SDS011;22354;50.012;8.264;2022-09-09T08:55:21;8.87;;;1.43;;
36327;SDS011;22354;50.012;8.264;2022-09-09T08:57:49;5.50;;;1.50;;
36327;SDS011;22354;50.012;8.264;2022-09-09T09:00:19;5.75;;;1.75;;
36327;SDS011;22354;50.012;8.264;2022-09-09T09:02:58;4.53;;;1.27;;
36327;SDS011;22354;50.012;8.264;2022-09-09T09:05:59;6.10;;;1.50;;
36327;SDS011;22354;50.012;8.264;2022-09-09T09:08:46;6.85;;;1.40;;
36327;SDS011;22354;50.012;8.264;2022-09-09T09:11:26;6.37;;;1.20;;
36327;SDS011;22354;50.012;8.264;2022-09-09T09:13:54;3.20;;;1.13;;
36327;SDS011;22354;50.012;8.264;2022-09-09T09:16:33;6.90;;;1.17;;
36327;SDS011;22354;50.012;8.264;2022-09-09T09:19:01;2.70;;;1.10;;
36327;SDS011;22354;50.012;8.264;2022-09-09T09:21:32;5.73;;;1.13;;
36327;SDS011;22354;50.012;8.264;2022-09-09T09:26:44;4.60;;;1.50;;
36327;SDS011;22354;50.012;8.264;2022-09-09T09:29:12;13.38;;;1.88;;
36327;SDS011;22354;50.012;8.264;2022-09-09T09:31:41;7.00;;;1.55;;
36327;SDS011;22354;50.012;8.264;2022-09-09T09:34:16;5.47;;;1.13;;
36327;SDS011;22354;50.012;8.264;2022-09-09T09:36:51;4.22;;;1.27;;
36327;SDS011;22354;50.012;8.264;2022-09-09T09:39:25;3.55;;;1.05;;
36327;SDS011;22354;50.012;8.264;2022-09-09T09:41:55;2.15;;;1.02;;
36327;SDS011;22354;50.012;8.264;2022-09-09T09:44:26;6.80;;;1.33;;
36327;SDS011;22354;50.012;8.264;2022-09-09T09:47:04;4.07;;;1.23;;
36327;SDS011;22354;50.012;8.264;2022-09-09T09:49:58;3.67;;;1.00;;
36327;SDS011;22354;50.012;8.264;2022-09-09T09:52:25;9.90;;;1.37;;
36327;SDS011;22354;50.012;8.264;2022-09-09T09:54:53;7.72;;;1.50;;
36327;SDS011;22354;50.012;8.264;2022-09-09T09:57:23;5.40;;;1.38;;
36327;SDS011;22354;50.012;8.264;2022-09-09T10:00:00;5.35;;;1.15;;
36327;SDS011;22354;50.012;8.264;2022-09-09T10:02:38;4.00;;;1.17;;
36327;SDS011;22354;50.012;8.264;2022-09-09T10:07:39;4.43;;;1.10;;
36327;SDS011;22354;50.012;8.264;2022-09-09T10:10:05;5.17;;;1.20;;
36327;SDS011;22354;50.012;8.264;2022-09-09T10:12:47;4.77;;;1.30;;
36327;SDS011;22354;50.012;8.264;2022-09-09T10:18:15;6.40;;;1.10;;
36327;SDS011;22354;50.012;8.264;2022-09-09T10:21:14;4.00;;;1.15;;
36327;SDS011;22354;50.012;8.264;2022-09-09T10:24:05;4.35;;;1.40;;
36327;SDS011;22354;50.012;8.264;2022-09-09T10:26:46;7.18;;;1.48;;
36327;SDS011;22354;50.012;8.264;2022-09-09T10:29:23;5.30;;;1.17;;
36327;SDS011;22354;50.012;8.264;2022-09-09T10:39:11;3.90;;;0.90;;
36327;SDS011;22354;50.012;8.264;2022-09-09T10:57:13;2.03;;;0.83;;
36327;SDS011;22354;50.012;8.264;2022-09-09T10:59:49;10.75;;;1.50;;
36327;SDS011;22354;50.012;8.264;2022-09-09T11:02:28;2.45;;;0.80;;
36327;SDS011;22354;50.012;8.264;2022-09-09T11:04:59;1.92;;;0.77;;
36327;SDS011;22354;50.012;8.264;2022-09-09T11:10:15;4.43;;;0.80;;
36327;SDS011;22354;50.012;8.264;2022-09-09T11:12:49;2.72;;;0.60;;
36327;SDS011;22354;50.012;8.264;2022-09-09T11:15:20;3.77;;;0.80;;
36327;SDS011;22354;50.012;8.264;2022-09-09T11:17:52;1.80;;;0.60;;
36327;SDS011;22354;50.012;8.264;2022-09-09T11:20:21;2.55;;;1.00;;
36327;SDS011;22354;50.012;8.264;2022-09-09T11:22:52;4.50;;;1.10;;
36327;SDS011;22354;50.012;8.264;2022-09-09T11:25:24;1.20;;;0.50;;
36327;SDS011;22354;50.012;8.264;2022-09-09T11:28:19;4.18;;;0.60;;
36327;SDS011;22354;50.012;8.264;2022-09-09T11:30:45;5.22;;;1.10;;
36327;SDS011;22354;50.012;8.264;2022-09-09T11:38:34;2.72;;;0.90;;
36327;SDS011;22354;50.012;8.264;2022-09-09T11:41:10;4.10;;;0.95;;
36327;SDS011;22354;50.012;8.264;2022-09-09T11:43:43;5.97;;;1.00;;
36327;SDS011;22354;50.012;8.264;2022-09-09T11:46:11;2.65;;;0.70;;
36327;SDS011;22354;50.012;8.264;2022-09-09T11:48:42;6.68;;;1.27;;
36327;SDS011;22354;50.012;8.264;2022-09-09T11:51:25;3.83;;;1.10;;
36327;SDS011;22354;50.012;8.264;2022-09-09T11:53:56;3.95;;;0.98;;
36327;SDS011;22354;50.012;8.264;2022-09-09T11:56:30;3.97;;;0.90;;
36327;SDS011;22354;50.012;8.264;2022-09-09T11:59:19;2.55;;;1.10;;
36327;SDS011;22354;50.012;8.264;2022-09-09T12:02:02;2.83;;;0.68;;
36327;SDS011;22354;50.012;8.264;2022-09-09T12:04:46;3.30;;;1.00;;
36327;SDS011;22354;50.012;8.264;2022-09-09T12:12:40;3.67;;;0.90;;
36327;SDS011;22354;50.012;8.264;2022-09-09T12:17:44;2.97;;;0.95;;
36327;SDS011;22354;50.012;8.264;2022-09-09T12:20:15;4.13;;;0.82;;
36327;SDS011;22354;50.012;8.264;2022-09-09T12:22:55;2.60;;;0.80;;
36327;SDS011;22354;50.012;8.264;2022-09-09T12:25:39;3.05;;;0.80;;
36327;SDS011;22354;50.012;8.264;2022-09-09T12:31:06;2.80;;;0.80;;
36327;SDS011;22354;50.012;8.264;2022-09-09T12:33:42;4.85;;;0.82;;
36327;SDS011;22354;50.012;8.264;2022-09-09T12:36:31;3.23;;;0.90;;
36327;SDS011;22354;50.012;8.264;2022-09-09T12:38:58;3.05;;;0.75;;
36327;SDS011;22354;50.012;8.264;2022-09-09T12:41:35;3.58;;;0.73;;
36327;SDS011;22354;50.012;8.264;2022-09-09T12:44:05;6.63;;;0.77;;
36327;SDS011;22354;50.012;8.264;2022-09-09T12:46:34;2.60;;;0.75;;
36327;SDS011;22354;50.012;8.264;2022-09-09T12:49:03;3.17;;;0.80;;
36327;SDS011;22354;50.012;8.264;2022-09-09T12:51:30;3.40;;;0.75;;
36327;SDS011;22354;50.012;8.264;2022-09-09T12:53:58;3.38;;;0.80;;
36327;SDS011;22354;50.012;8.264;2022-09-09T12:56:25;5.60;;;0.77;;
36327;SDS011;22354;50.012;8.264;2022-09-09T12:58:54;3.93;;;0.83;;
36327;SDS011;22354;50.012;8.264;2022-09-09T13:01:23;2.15;;;0.80;;
36327;SDS011;22354;50.012;8.264;2022-09-09T13:03:57;4.40;;;0.80;;
36327;SDS011;22354;50.012;8.264;2022-09-09T13:06:24;5.05;;;1.00;;
36327;SDS011;22354;50.012;8.264;2022-09-09T13:08:50;1.70;;;0.60;;
36327;SDS011;22354;50.012;8.264;2022-09-09T13:11:17;2.88;;;0.68;;
36327;SDS011;22354;50.012;8.264;2022-09-09T13:13:56;5.30;;;0.90;;
36327;SDS011;22354;50.012;8.264;2022-09-09T13:16:26;2.90;;;0.53;;
36327;SDS011;22354;50.012;8.264;2022-09-09T13:18:57;3.85;;;0.60;;
36327;SDS011;22354;50.012;8.264;2022-09-09T13:21:34;2.60;;;0.60;;
36327;SDS011;22354;50.012;8.264;2022-09-09T13:24:03;2.87;;;0.57;;
36327;SDS011;22354;50.012;8.264;2022-09-09T13:26:31;1.35;;;0.55;;
36327;SDS011;22354;50.012;8.264;2022-09-09T13:29:07;3.00;;;0.47;;
36327;SDS011;22354;50.012;8.264;2022-09-09T13:31:43;3.03;;;0.50;;
36327;SDS011;22354;50.012;8.264;2022-09-09T13:34:28;2.20;;;0.40;;
36327;SDS011;22354;50.012;8.264;2022-09-09T13:39:27;3.28;;;0.50;;
36327;SDS011;22354;50.012;8.264;2022-09-09T13:41:52;2.10;;;0.30;;
36327;SDS011;22354;50.012;8.264;2022-09-09T13:44:28;1.83;;;0.60;;
36327;SDS011;22354;50.012;8.264;2022-09-09T13:47:17;1.67;;;0.60;;
36327;SDS011;22354;50.012;8.264;2022-09-09T13:49:47;1.73;;;0.50;;
36327;SDS011;22354;50.012;8.264;2022-09-09T13:52:14;1.90;;;0.40;;
36327;SDS011;22354;50.012;8.264;2022-09-09T13:54:41;2.78;;;0.60;;
36327;SDS011;22354;50.012;8.264;2022-09-09T13:57:17;4.00;;;0.73;;
36327;SDS011;22354;50.012;8.264;2022-09-09T13:59:44;3.55;;;0.70;;
36327;SDS011;22354;50.012;8.264;2022-09-09T14:02:11;2.13;;;0.60;;
36327;SDS011;22354;50.012;8.264;2022-09-09T14:04:36;2.00;;;0.50;;
36327;SDS011;22354;50.012;8.264;2022-09-09T14:07:01;1.90;;;0.40;;
36327;SDS011;22354;50.012;8.264;2022-09-09T14:09:28;2.78;;;0.50;;
36327;SDS011;22354;50.012;8.264;2022-09-09T14:11:53;2.20;;;0.70;;
36327;SDS011;22354;50.012;8.264;2022-09-09T14:14:20;3.90;;;1.10;;
36327;SDS011;22354;50.012;8.264;2022-09-09T14:16:45;2.03;;;0.57;;
36327;SDS011;22354;50.012;8.264;2022-09-09T14:19:10;4.57;;;0.80;;
36327;SDS011;22354;50.012;8.264;2022-09-09T14:21:35;2.80;;;0.70;;
36327;SDS011;22354;50.012;8.264;2022-09-09T14:24:01;2.53;;;0.67;;
36327;SDS011;22354;50.012;8.264;2022-09-09T14:26:26;3.22;;;0.80;;
36327;SDS011;22354;50.012;8.264;2022-09-09T14:28:53;3.90;;;0.80;;
36327;SDS011;22354;50.012;8.264;2022-09-09T14:31:18;7.17;;;0.90;;
36327;SDS011;22354;50.012;8.264;2022-09-09T14:33:44;3.90;;;0.90;;
36327;SDS011;22354;50.012;8.264;2022-09-09T14:36:10;5.80;;;1.03;;
36327;SDS011;22354;50.012;8.264;2022-09-09T14:38:36;4.35;;;1.13;;
36327;SDS011;22354;50.012;8.264;2022-09-09T14:41:04;3.80;;;0.88;;
36327;SDS011;22354;50.012;8.264;2022-09-09T14:43:31;5.30;;;0.90;;
36327;SDS011;22354;50.012;8.264;2022-09-09T14:45:57;2.70;;;0.70;;
36327;SDS011;22354;50.012;8.264;2022-09-09T14:48:29;5.68;;;0.82;;
36327;SDS011;22354;50.012;8.264;2022-09-09T14:50:54;3.70;;;0.60;;
36327;SDS011;22354;50.012;8.264;2022-09-09T14:53:20;4.85;;;0.80;;
36327;SDS011;22354;50.012;8.264;2022-09-09T14:55:46;6.43;;;1.10;;
36327;SDS011;22354;50.012;8.264;2022-09-09T14:58:11;1.40;;;0.70;;
36327;SDS011;22354;50.012;8.264;2022-09-09T15:00:38;4.13;;;0.98;;
36327;SDS011;22354;50.012;8.264;2022-09-09T15:03:04;3.73;;;1.00;;
36327;SDS011;22354;50.012;8.264;2022-09-09T15:05:29;3.20;;;0.80;;
36327;SDS011;22354;50.012;8.264;2022-09-09T15:07:56;2.83;;;1.00;;
36327;SDS011;22354;50.012;8.264;2022-09-09T15:10:23;1.05;;;0.60;;
36327;SDS011;22354;50.012;8.264;2022-09-09T15:12:49;3.33;;;0.68;;
36327;SDS011;22354;50.012;8.264;2022-09-09T15:15:14;3.00;;;0.70;;
36327;SDS011;22354;50.012;8.264;2022-09-09T15:17:39;3.60;;;0.80;;
36327;SDS011;22354;50.012;8.264;2022-09-09T15:20:05;3.33;;;0.87;;
36327;SDS011;22354;50.012;8.264;2022-09-09T15:22:31;5.90;;;0.83;;
36327;SDS011;22354;50.012;8.264;2022-09-09T15:24:56;2.75;;;0.70;;
36327;SDS011;22354;50.012;8.264;2022-09-09T15:27:21;3.77;;;0.60;;
36327;SDS011;22354;50.012;8.264;2022-09-09T15:29:47;2.77;;;0.60;;
36327;SDS011;22354;50.012;8.264;2022-09-09T15:32:13;4.17;;;1.00;;
36327;SDS011;22354;50.012;8.264;2022-09-09T15:34:38;4.50;;;0.70;;
36327;SDS011;22354;50.012;8.264;2022-09-09T15:37:03;3.50;;;0.80;;
36327;SDS011;22354;50.012;8.264;2022-09-09T15:39:29;2.43;;;0.40;;
36327;SDS011;22354;50.012;8.264;2022-09-09T15:41:54;3.30;;;0.93;;
36327;SDS011;22354;50.012;8.264;2022-09-09T15:44:19;2.50;;;0.63;;
36327;SDS011;22354;50.012;8.264;2022-09-09T15:46:46;3.50;;;0.75;;
36327;SDS011;22354;50.012;8.264;2022-09-09T15:49:21;4.10;;;0.63;;
36327;SDS011;22354;50.012;8.264;2022-09-09T15:51:59;2.27;;;0.80;;
36327;SDS011;22354;50.012;8.264;2022-09-09T15:54:28;2.70;;;0.70;;
36327;SDS011;22354;50.012;8.264;2022-09-09T15:56:58;1.67;;;0.65;;
36327;SDS011;22354;50.012;8.264;2022-09-09T15:59:26;2.40;;;0.70;;
36327;SDS011;22354;50.012;8.264;2022-09-09T16:01:53;3.00;;;1.00;;
36327;SDS011;22354;50.012;8.264;2022-09-09T16:04:20;1.52;;;0.60;;
36327;SDS011;22354;50.012;8.264;2022-09-09T16:06:50;1.38;;;0.70;;
36327;SDS011;22354;50.012;8.264;2022-09-09T16:09:19;2.65;;;1.13;;
36327;SDS011;22354;50.012;8.264;2022-09-09T16:11:45;5.80;;;0.85;;
36327;SDS011;22354;50.012;8.264;2022-09-09T16:14:12;2.40;;;0.75;;
36327;SDS011;22354;50.012;8.264;2022-09-09T16:16:38;1.20;;;0.70;;
36327;SDS011;22354;50.012;8.264;2022-09-09T16:19:04;2.42;;;0.60;;
36327;SDS011;22354;50.012;8.264;2022-09-09T16:21:33;2.70;;;0.60;;
36327;SDS011;22354;50.012;8.264;2022-09-09T16:24:00;2.25;;;0.50;;
36327;SDS011;22354;50.012;8.264;2022-09-09T16:26:27;3.05;;;0.80;;
36327;SDS011;22354;50.012;8.264;2022-09-09T16:28:54;1.60;;;0.65;;
36327;SDS011;22354;50.012;8.264;2022-09-09T16:31:21;2.83;;;0.60;;